Historyczne dane pomiarowe

Dodano dane terminowe – wersja testowa.

Dane z okresu 1951-2019

Wersja bazy: 1.34 [2019-03-16, lista zmian], aktualizacja planowana na 2019-04-15

Dane meteo z obszaru Polski uzyskane na podstawie danych udostępnionych przez Instytut Meteorologii i Gospodarki Wodnej – Państwowy Instytut Badawczy.

 

Wybierz Datę:    

       

TemperaturaWilgotnośćWiatrCiśnienieOpadyŚniegCzas trwania zjawisk
 Stacja t tx tn tng RH VA  wxwx mslp ppp RRR   cm mm wxwxwxwxwxwxwx
1961-08-14 13.1 18.4 8.4- 78.3- 2.3 1.7---- 0.0------------
1961-08-13 13.0 16.6 11.5- 91.5- 7.7 1.3---- 5.4------------
1961-08-12 17.2 21.1 14.7- 92.0- 7.3 2.0---- 12.1------------
1961-08-11 22.4 31.1 18.5- 79.0- 5.7 3.0---- 0.0------------
1961-08-10 23.7 29.1 18.1- 82.5- 3.3 3.0---- 0.0------------
1961-08-09 22.0 28.0 12.9- 78.5- 6.3 1.0---- 0.6------------
1961-08-08 16.4 20.7 14.7- 86.8- 5.3 2.3---- 0.0------------
1961-08-07 22.3 29.8 15.8- 69.0- 5.0 2.3---- 5.7------------
1961-08-06 21.7 30.5 14.4- 72.0- 1.7 3.7---- 0.0------------
1961-08-05 18.0 24.4 14.9- 77.0- 4.3 2.3---- 0.0------------
1961-08-04 15.6 20.5 7.3- 74.8- 5.3 1.3---- 0.0------------
1961-08-03 16.9 22.2 13.4- 79.8- 7.7 2.3---- 0.0------------
1961-08-02 18.2 25.4 7.9- 73.5- 1.3 3.3---- 0.0------------
1961-08-01 13.9 20.4 11.4- 78.8- 4.3 4.3---- 0.0------------
1961-07-31 12.6 14.6 10.5- 92.0- 7.7 5.3---- 3.8------------
1961-07-30 11.3 13.8 10.7- 98.5- 8.0 4.0---- 35.4------------
1961-07-29 13.9 18.0 12.0- 90.5- 8.0 2.3---- 7.0------------
1961-07-28 19.2 25.3 16.1- 82.3- 7.3 3.3---- 15.8------------
1961-07-27 20.5 26.4 11.7- 63.0- 5.3 2.7---- 1.0------------
1961-07-26 16.3 22.1 9.9- 71.0- 6.7 2.3---- 0.0------------
1961-07-25 13.5 16.4 10.5- 78.3- 7.7 2.3---- 0.0------------
1961-07-24 14.2 18.2 10.7- 74.5- 6.7 2.3---- 0.0------------
1961-07-23 14.5 19.8 10.3- 79.3- 3.0 3.0---- 0.0------------
1961-07-22 14.4 19.7 12.0- 88.8- 5.3 3.0---- 1.3------------
1961-07-21 14.8 19.0 9.5- 82.5- 7.7 2.7---- 3.8------------
1961-07-20 15.1 20.5 8.5- 82.0- 7.0 1.7---- 0.0------------
1961-07-19 12.8 18.6 7.7- 92.0- 6.3 1.3---- 0.3------------
1961-07-18 13.3 18.6 9.5- 82.8- 5.7 4.0---- 0.0------------
1961-07-17 16.1 21.8 10.9- 68.8- 4.3 2.3---- 2.0------------
1961-07-16 14.5 20.2 12.6- 88.5- 4.3 3.7---- 0.0------------
1961-07-15 16.1 23.3 11.7- 81.8- 5.0 2.3---- 3.1------------
1961-07-14 14.0 19.5 11.9- 76.8- 3.7 4.0---- 0.0------------
1961-07-13 20.1 28.8 14.0- 79.8- 6.3 4.0---- 16.1------------
1961-07-12 18.6 25.8 10.4- 83.8- 3.0 2.3---- 8.8------------
1961-07-11 15.3 21.9 6.5- 67.3- 3.7 2.0---- 3.0------------
1961-07-10 13.7 18.9 8.2- 73.8- 7.3 2.7---- 0.2------------
1961-07-09 15.4 22.7 8.1- 72.0- 4.7 4.0---- 0.3------------
1961-07-08 13.8 21.3 5.6- 64.8- 2.3 0.7---- 0.0------------
1961-07-07 12.4 17.7 9.5- 76.0- 6.0 2.0---- 0.0------------
1961-07-06 12.8 16.0 5.9- 69.3- 6.7 3.7---- 1.1------------
1961-07-05 13.4 20.9 10.5- 72.5- 5.0 4.0---- 0.0------------
1961-07-04 22.3 29.4 14.5- 69.0- 3.3 2.3---- 4.1------------
1961-07-03 24.3 31.0 11.5- 50.5- 0.0 2.3---- 0.0------------
1961-07-02 20.9 28.5 9.3- 58.3- 0.0 0.3---- 0.0------------
1961-07-01 19.2 27.4 10.0- 65.3- 1.7 1.7---- 0.0------------
1961-06-30 17.2 24.1 7.6- 72.8- 1.7 1.3---- 0.0------------
1961-06-29 16.1 20.2 7.5- 67.8- 4.0 3.0---- 0.0------------
1961-06-28 13.1 20.0 10.9- 84.0- 5.3 4.3---- 5.1------------
1961-06-27 22.7 31.7 16.9- 73.3- 4.0 4.7---- 8.2------------
1961-06-26 20.3 30.2 12.0- 83.3- 5.7 2.7---- 12.6------------
1961-06-25 21.0 30.0 10.2- 65.0- 4.7 2.0---- 0.0------------
1961-06-24 18.2 25.7 8.5- 63.8- 4.0 3.0---- 0.0------------
1961-06-23 17.8 24.2 15.8- 72.5- 4.3 2.7---- 0.0------------
1961-06-22 18.3 23.4 9.2- 61.8- 5.0 3.3---- 3.0------------
1961-06-21 17.0 23.6 5.0- 54.8- 2.3 3.0---- 0.0------------
1961-06-20 13.7 20.9 6.9- 64.5- 0.7 2.3---- 0.0------------
1961-06-19 18.0 24.5 13.4- 77.8- 2.3 2.0---- 0.0------------
1961-06-18 20.4 26.7 7.7- 55.5- 1.3 2.3---- 0.0------------
1961-06-17 14.9 22.0 5.5- 69.8- 1.3 1.7---- 0.0------------
1961-06-16 12.0 17.4 6.4- 78.5- 2.7 3.0---- 0.0------------
402.5 ms

 

Źródłem pochodzenia danych jest Instytut Meteorologii i Gospodarki Wodnej – Państwowy Instytut Badawczy. Dane Instytutu Meteorologii i Gospodarki Wodnej – Państwowego Instytutu Badawczego zostały przetworzone.

Dane źródłowe można odnaleźć na stronie https://dane.imgw.pl